Axstal, Sweden

6:42 AM CET on November 28, 2014 (GMT +0100)
Vadstena | Change Station
CLOSE
Current Station
Personal Weather Station
Location: Vadstena, Vadstena
Elevation: 300 ft
Nearby Weather Stations

Elev 300 ft 58.45 °N, 14.90 °E | Updated 10 seconds ago

Overcast
Overcast
32.7 °F
Feels Like 33 °F
N
2.7
Wind Variable Wind from ENE
Gusts 9.2 mph

Today
High -- | Low -- °F
--% Chance of Precip.
Yesterday
High -- | Low -- °F
Precip. -- in
8:19 AM 3:19 PM
Waxing Crescent, 36% visible
Pressure 30.33 in
Visibility -9999.0 miles
Clouds Overcast 200 ft
Windchill 33 °F
Dew Point 32 °F
Humidity 97%
Rainfall 0.00 in
Snow Depth Not available.
UV 0 out of 12
Pollen Not available.
Air Quality Not available.
Flu Activity Not available.
METAR ESGR 280520Z AUTO 00000KT 4200 BR OVC002/// 00/00 Q1027

More Conditions Fewer Conditions

Pressure 30.33 in
Visibility -9999.0 miles
Clouds Overcast 200 ft
Windchill 33 °F
Dew Point 32 °F
Humidity 97%
Rainfall 0.00 in
Snow Depth Not available.
UV 0 out of 12
Pollen Not available.
Air Quality Not available.
Flu Activity Not available.
METAR ESGR 280520Z AUTO 00000KT 4200 BR OVC002/// 00/00 Q1027

More Conditions Fewer Conditions

10-Day Weather Forecast

Almanac

Astronomy

Nov. 28, 2014 Rise Set
Actual Time
Civil Twilight
Nautical Twilight
Astronomical Twilight
Moon
Length of Visible Light
Length of Day
Tomorrow will be .
, % of the Moon is Illuminated

Today's Extremes

Country Highs Country Lows

Community

WunderPhotos

Upload Photos

1,774,195 photos uploaded!

WunderBlogs® & News

Nearby

Air Quality

  Air Quality AQ Index Pollutant
Not available.

Snow Depth

Station Depth Elevation

Earthquake Activity

City Distance Mag. Time & Date
Minimum magnitude displayed is 2.5.

Coastal Water Temperatures

Place Temperature

Nearby Weather Stations